createdAt,value
2022-10-18T00:00:18.793Z,100.00
2022-10-18T00:02:45.527Z,100.00
2022-10-18T00:05:12.220Z,100.00
2022-10-18T00:07:38.943Z,100.00
2022-10-18T00:10:06.223Z,100.00
2022-10-18T00:12:35.466Z,100.00
2022-10-18T00:15:02.965Z,100.00
2022-10-18T00:17:29.926Z,100.00
2022-10-18T00:19:56.874Z,100.00
2022-10-18T00:22:23.800Z,100.00
2022-10-18T00:24:50.497Z,100.00
2022-10-18T00:27:18.380Z,100.00
2022-10-18T00:29:45.282Z,100.00
2022-10-18T00:32:14.909Z,100.00
2022-10-18T00:34:41.545Z,100.00
2022-10-18T00:37:08.238Z,100.00
2022-10-18T00:39:35.238Z,100.00
2022-10-18T00:42:03.552Z,100.00
2022-10-18T00:44:30.207Z,100.00
2022-10-18T00:47:02.370Z,100.00
2022-10-18T00:49:34.126Z,100.00
2022-10-18T00:52:11.578Z,100.00
2022-10-18T00:54:41.797Z,100.00
2022-10-18T00:57:10.390Z,100.00
2022-10-18T00:59:37.623Z,100.00
2022-10-18T01:02:05.769Z,100.00
2022-10-18T01:04:32.794Z,100.00
2022-10-18T01:07:05.130Z,100.00
2022-10-18T01:09:56.445Z,100.00
2022-10-18T01:12:35.148Z,100.00
2022-10-18T01:15:28.268Z,100.00
2022-10-18T01:18:03.937Z,100.00
2022-10-18T01:21:13.308Z,100.00
2022-10-18T01:24:28.270Z,100.00
2022-10-18T01:27:03.925Z,100.00
2022-10-18T01:29:39.838Z,100.00
2022-10-18T01:32:24.482Z,100.00
2022-10-18T01:34:57.248Z,100.00
2022-10-18T01:37:26.331Z,100.00
2022-10-18T01:39:56.568Z,100.00
2022-10-18T01:42:24.098Z,100.00
2022-10-18T01:44:52.876Z,100.00
2022-10-18T01:47:21.669Z,100.00
2022-10-18T01:49:48.354Z,100.00
2022-10-18T01:52:16.408Z,100.00
2022-10-18T01:54:49.094Z,100.00
2022-10-18T01:57:31.722Z,100.00
2022-10-18T02:00:24.703Z,100.00
2022-10-18T02:02:58.826Z,100.00
2022-10-18T02:05:34.647Z,100.00
2022-10-18T02:08:22.044Z,100.00
2022-10-18T02:10:54.380Z,100.00
2022-10-18T02:13:23.669Z,100.00
2022-10-18T02:15:56.427Z,100.00
2022-10-18T02:18:32.722Z,100.00
2022-10-18T02:21:03.103Z,100.00
2022-10-18T02:23:31.441Z,100.00
2022-10-18T02:25:58.272Z,100.00
2022-10-18T02:31:15.928Z,100.00
2022-10-18T02:33:57.009Z,100.00
2022-10-18T02:36:45.528Z,100.00
2022-10-18T02:39:18.709Z,100.00
2022-10-18T02:41:45.649Z,100.00
2022-10-18T02:44:12.360Z,100.00
2022-10-18T02:46:40.010Z,100.00
2022-10-18T02:49:07.245Z,100.00
2022-10-18T02:51:33.875Z,100.00
2022-10-18T02:54:00.620Z,100.00
2022-10-18T02:56:27.289Z,100.00
2022-10-18T02:58:54.310Z,100.00
2022-10-18T03:01:21.097Z,100.00
2022-10-18T03:03:47.906Z,100.00
2022-10-18T03:06:14.584Z,100.00
2022-10-18T03:08:41.268Z,100.00
2022-10-18T03:11:08.050Z,100.00
2022-10-18T03:13:35.133Z,100.00
2022-10-18T03:16:02.306Z,100.00
2022-10-18T03:18:29.140Z,100.00
2022-10-18T03:20:55.831Z,100.00
2022-10-18T03:23:22.511Z,100.00
2022-10-18T03:25:49.239Z,100.00
2022-10-18T03:28:15.947Z,100.00
2022-10-18T03:30:42.570Z,100.00
2022-10-18T03:33:09.840Z,100.00
2022-10-18T03:35:36.468Z,100.00
2022-10-18T03:38:03.287Z,100.00
2022-10-18T03:42:57.536Z,100.00
2022-10-18T03:45:28.845Z,100.00
2022-10-18T03:47:57.932Z,100.00
2022-10-18T03:50:24.615Z,100.00
2022-10-18T03:52:51.268Z,100.00
2022-10-18T03:55:17.945Z,100.00
2022-10-18T03:57:44.612Z,100.00
2022-10-18T04:00:12.735Z,100.00
2022-10-18T04:02:39.583Z,100.00
2022-10-18T04:05:07.611Z,100.00
2022-10-18T04:10:07.638Z,100.00
2022-10-18T04:12:34.594Z,100.00
2022-10-18T04:15:01.628Z,100.00
2022-10-18T04:17:28.338Z,100.00
2022-10-18T04:19:55.064Z,100.00
2022-10-18T04:22:21.727Z,100.00
2022-10-18T04:24:48.480Z,100.00
2022-10-18T04:27:15.179Z,100.00
2022-10-18T04:29:41.860Z,100.00
2022-10-18T04:32:08.643Z,100.00
2022-10-18T04:34:35.314Z,100.00
2022-10-18T04:37:01.999Z,100.00
2022-10-18T04:39:28.798Z,100.00
2022-10-18T04:41:55.516Z,100.00
2022-10-18T04:44:22.977Z,100.00
2022-10-18T04:46:49.819Z,100.00
2022-10-18T04:49:16.500Z,100.00
2022-10-18T04:51:43.161Z,100.00
2022-10-18T04:54:09.803Z,100.00
2022-10-18T04:56:36.502Z,100.00
2022-10-18T04:59:03.250Z,100.00
2022-10-18T05:01:30.026Z,100.00
2022-10-18T05:03:56.731Z,100.00
2022-10-18T05:06:23.561Z,100.00
2022-10-18T05:08:50.298Z,100.00
2022-10-18T05:11:16.993Z,100.00
2022-10-18T05:13:46.040Z,100.00
2022-10-18T05:16:16.101Z,100.00
2022-10-18T05:18:43.390Z,100.00
2022-10-18T05:21:10.088Z,100.00
2022-10-18T05:23:36.791Z,100.00
2022-10-18T05:26:06.664Z,100.00
2022-10-18T05:28:39.261Z,100.00
2022-10-18T05:31:09.839Z,100.00
2022-10-18T05:33:36.553Z,100.00
2022-10-18T05:36:03.466Z,100.00
2022-10-18T05:38:33.067Z,100.00
2022-10-18T05:41:00.170Z,100.00
2022-10-18T05:43:30.382Z,100.00
2022-10-18T05:45:57.212Z,100.00
2022-10-18T05:48:23.921Z,100.00
2022-10-18T05:50:50.602Z,100.00
2022-10-18T05:53:36.722Z,100.00
2022-10-18T05:56:04.278Z,100.00
2022-10-18T05:58:30.951Z,100.00
2022-10-18T06:01:01.937Z,100.00
2022-10-18T06:03:30.978Z,100.00
2022-10-18T06:06:04.891Z,100.00
2022-10-18T06:08:31.742Z,78.82
2022-10-18T06:10:58.478Z,67.78
2022-10-18T06:13:25.220Z,61.00
2022-10-18T06:15:57.282Z,56.91
2022-10-18T06:18:24.113Z,54.26
2022-10-18T06:20:56.848Z,50.73
2022-10-18T06:23:23.559Z,48.58
2022-10-18T06:25:50.214Z,47.29
2022-10-18T06:28:16.862Z,44.46
2022-10-18T06:30:44.466Z,43.42
2022-10-18T06:33:12.072Z,42.55
2022-10-18T06:35:38.755Z,42.89
2022-10-18T06:38:08.362Z,44.91
2022-10-18T06:40:38.118Z,43.03
2022-10-18T06:43:20.705Z,44.13
2022-10-18T06:45:48.806Z,43.07
2022-10-18T06:48:16.336Z,42.71
2022-10-18T06:50:43.456Z,42.68
2022-10-18T06:53:10.239Z,39.90
2022-10-18T06:55:36.890Z,38.59
2022-10-18T06:58:03.668Z,36.10
2022-10-18T07:00:30.352Z,34.86
2022-10-18T07:02:58.381Z,34.20
2022-10-18T07:05:25.181Z,35.09
2022-10-18T07:07:54.342Z,36.54
2022-10-18T07:10:24.300Z,34.88
2022-10-18T07:12:53.487Z,38.08
2022-10-18T07:15:24.298Z,40.24
2022-10-18T07:17:51.108Z,36.49
2022-10-18T07:20:17.967Z,34.78
2022-10-18T07:22:44.619Z,33.73
2022-10-18T07:25:11.294Z,31.38
2022-10-18T07:27:40.008Z,31.49
2022-10-18T07:30:08.609Z,34.59
2022-10-18T07:32:35.490Z,35.16
2022-10-18T07:35:02.537Z,36.35
2022-10-18T07:37:30.414Z,37.04
2022-10-18T07:39:57.236Z,34.79
2022-10-18T07:42:23.954Z,33.87
2022-10-18T07:44:50.810Z,34.44
2022-10-18T07:47:18.183Z,33.35
2022-10-18T07:49:45.227Z,33.40
2022-10-18T07:52:11.949Z,33.41
2022-10-18T07:54:38.703Z,36.01
2022-10-18T07:57:05.493Z,32.48
2022-10-18T07:59:32.220Z,30.91
2022-10-18T08:01:59.005Z,31.43
2022-10-18T08:04:31.452Z,29.45
2022-10-18T08:06:58.140Z,28.57
2022-10-18T08:09:24.826Z,29.35
2022-10-18T08:11:51.519Z,27.79
2022-10-18T08:14:18.493Z,29.97
2022-10-18T08:16:45.339Z,29.93
2022-10-18T08:19:12.148Z,34.00
2022-10-18T08:21:38.824Z,36.93
2022-10-18T08:24:05.817Z,34.85
2022-10-18T08:26:32.748Z,36.10
2022-10-18T08:29:17.777Z,36.85
2022-10-18T08:31:46.096Z,37.64
2022-10-18T08:34:17.298Z,36.70
2022-10-18T08:36:46.287Z,38.47
2022-10-18T08:39:12.962Z,38.91
2022-10-18T08:42:07.396Z,36.12
2022-10-18T08:44:44.067Z,35.10
2022-10-18T08:47:21.369Z,34.59
2022-10-18T08:49:56.757Z,33.27
2022-10-18T08:53:17.398Z,33.07
2022-10-18T08:55:54.805Z,33.79
2022-10-18T08:58:24.781Z,34.73
2022-10-18T09:01:24.609Z,34.44
2022-10-18T09:04:16.275Z,33.04
2022-10-18T09:06:58.250Z,32.07
2022-10-18T09:09:36.975Z,35.36
2022-10-18T09:12:03.965Z,33.19
2022-10-18T09:14:46.835Z,31.79
2022-10-18T09:17:43.194Z,31.86
2022-10-18T09:20:22.134Z,31.37
2022-10-18T09:22:53.730Z,32.22
2022-10-18T09:25:23.699Z,33.33
2022-10-18T09:27:55.975Z,33.60
2022-10-18T09:30:39.676Z,31.72
2022-10-18T09:33:12.521Z,31.12
2022-10-18T09:36:08.362Z,30.91
2022-10-18T09:38:45.383Z,29.06
2022-10-18T09:41:15.098Z,31.77
2022-10-18T09:43:56.655Z,31.67
2022-10-18T09:46:26.781Z,30.98
2022-10-18T09:48:59.523Z,30.01
2022-10-18T09:51:30.840Z,30.19
2022-10-18T09:54:22.174Z,28.87
2022-10-18T09:57:03.607Z,27.06
2022-10-18T09:59:35.579Z,26.96
2022-10-18T10:02:02.313Z,26.99
2022-10-18T10:04:29.094Z,27.54
2022-10-18T10:06:57.198Z,28.67
2022-10-18T10:09:30.056Z,27.97
2022-10-18T10:11:58.115Z,27.94
2022-10-18T10:14:27.592Z,27.21
2022-10-18T10:17:02.494Z,28.11
2022-10-18T10:19:32.008Z,27.90
2022-10-18T10:22:12.189Z,27.96
2022-10-18T10:24:54.787Z,28.45
2022-10-18T10:27:29.765Z,27.67
2022-10-18T10:30:06.790Z,26.03
2022-10-18T10:32:46.711Z,25.92
2022-10-18T10:35:53.207Z,26.68
2022-10-18T10:38:26.246Z,26.28
2022-10-18T10:40:53.425Z,25.02
2022-10-18T10:43:37.625Z,24.92
2022-10-18T10:46:12.888Z,25.50
2022-10-18T10:48:41.631Z,24.42
2022-10-18T10:51:11.107Z,25.68
2022-10-18T10:53:51.417Z,25.48
2022-10-18T10:56:50.106Z,25.67
2022-10-18T10:59:20.531Z,26.11
2022-10-18T11:01:51.510Z,26.25
2022-10-18T11:04:30.240Z,25.89
2022-10-18T11:07:17.105Z,26.21
2022-10-18T11:09:59.000Z,25.25
2022-10-18T11:12:33.458Z,25.77
2022-10-18T11:15:18.393Z,24.83
2022-10-18T11:17:51.307Z,25.34
2022-10-18T11:20:24.301Z,25.53
2022-10-18T11:22:56.963Z,25.45
2022-10-18T11:25:27.875Z,25.84
2022-10-18T11:28:06.046Z,26.13
2022-10-18T11:30:58.995Z,26.26
2022-10-18T11:34:14.043Z,26.53
2022-10-18T11:37:29.961Z,25.47
2022-10-18T11:40:06.873Z,25.71
2022-10-18T11:43:14.792Z,25.22
2022-10-18T11:46:00.631Z,24.59
2022-10-18T11:48:59.009Z,24.53
2022-10-18T11:51:34.097Z,23.58
2022-10-18T11:54:33.586Z,24.06
2022-10-18T11:57:22.074Z,24.15
2022-10-18T11:59:57.780Z,24.82
2022-10-18T12:02:45.646Z,23.90
2022-10-18T12:05:28.723Z,24.67
2022-10-18T12:08:15.551Z,24.14
2022-10-18T12:11:03.890Z,24.51
2022-10-18T12:13:58.874Z,24.75
2022-10-18T12:16:49.991Z,26.08
2022-10-18T12:19:26.746Z,26.32
2022-10-18T12:22:03.177Z,26.11
2022-10-18T12:24:32.059Z,26.58
2022-10-18T12:27:01.570Z,26.20
2022-10-18T12:29:53.601Z,26.63
2022-10-18T12:32:34.914Z,26.05
2022-10-18T12:35:11.289Z,25.93
2022-10-18T12:37:56.007Z,27.32
2022-10-18T12:40:44.600Z,27.26
2022-10-18T12:43:21.497Z,27.65
2022-10-18T12:45:55.271Z,27.77
2022-10-18T12:48:33.213Z,27.28
2022-10-18T12:51:05.919Z,27.06
2022-10-18T12:53:33.826Z,27.46
2022-10-18T12:56:36.828Z,27.01
2022-10-18T12:59:18.833Z,27.41
2022-10-18T13:01:51.679Z,27.31
2022-10-18T13:04:27.940Z,26.05
2022-10-18T13:07:00.710Z,26.45
2022-10-18T13:09:29.899Z,28.35
2022-10-18T13:12:21.183Z,26.20
2022-10-18T13:15:37.649Z,25.72
2022-10-18T13:18:24.460Z,26.07
2022-10-18T13:21:10.594Z,28.36
2022-10-18T13:24:00.372Z,28.49
2022-10-18T13:26:58.132Z,26.70
2022-10-18T13:29:54.239Z,28.33
2022-10-18T13:32:57.390Z,27.94
2022-10-18T13:35:43.385Z,27.74
2022-10-18T13:38:47.820Z,28.89
2022-10-18T13:44:23.018Z,28.80
2022-10-18T13:46:49.659Z,28.79
2022-10-18T13:49:31.538Z,28.98
2022-10-18T13:52:20.764Z,29.88
2022-10-18T13:54:56.631Z,29.88
2022-10-18T13:57:47.706Z,29.16
2022-10-18T14:00:37.933Z,29.37
2022-10-18T14:04:02.461Z,30.58
2022-10-18T14:06:50.555Z,30.57
2022-10-18T14:09:43.377Z,31.73
2022-10-18T14:12:44.278Z,32.56
2022-10-18T14:15:34.466Z,31.86
2022-10-18T14:18:41.573Z,32.31
2022-10-18T14:21:19.859Z,32.51
2022-10-18T14:23:48.445Z,32.86
2022-10-18T14:26:18.628Z,33.91
2022-10-18T14:28:59.528Z,33.95
2022-10-18T14:31:27.630Z,32.82
2022-10-18T14:33:58.439Z,33.18
2022-10-18T14:36:29.642Z,35.42
2022-10-18T14:38:59.357Z,36.01
2022-10-18T14:41:28.843Z,37.24
2022-10-18T14:44:29.715Z,37.56
2022-10-18T14:47:01.407Z,37.73
2022-10-18T14:49:28.886Z,38.15
2022-10-18T14:51:58.681Z,39.97
2022-10-18T14:54:31.687Z,41.36
2022-10-18T14:57:00.805Z,42.40
2022-10-18T14:59:30.967Z,43.54
2022-10-18T15:02:14.401Z,43.80
2022-10-18T15:04:46.056Z,44.38
2022-10-18T15:07:18.349Z,45.11
2022-10-18T15:09:47.239Z,45.53
2022-10-18T15:12:16.446Z,46.21
2022-10-18T15:14:44.828Z,48.00
2022-10-18T15:17:21.261Z,47.87
2022-10-18T15:20:28.707Z,47.76
2022-10-18T15:23:21.194Z,50.40
2022-10-18T15:25:48.791Z,51.09
2022-10-18T15:28:29.484Z,53.32
2022-10-18T15:30:58.600Z,56.71
2022-10-18T15:33:27.719Z,57.76
2022-10-18T15:35:55.124Z,59.86
2022-10-18T15:38:29.451Z,62.24
2022-10-18T15:40:56.155Z,63.28
2022-10-18T15:43:26.186Z,62.89
2022-10-18T15:45:58.825Z,62.88
2022-10-18T15:48:33.742Z,63.71
2022-10-18T15:51:04.865Z,64.39
2022-10-18T15:53:43.849Z,64.72
2022-10-18T15:56:32.820Z,66.03
2022-10-18T15:59:04.335Z,67.26
2022-10-18T16:01:44.379Z,68.51
2022-10-18T16:04:20.234Z,70.15
2022-10-18T16:06:46.873Z,72.01
2022-10-18T16:09:17.921Z,72.68
2022-10-18T16:11:45.346Z,74.24
2022-10-18T16:14:12.035Z,76.10
2022-10-18T16:16:40.430Z,81.18
2022-10-18T16:19:07.967Z,86.08
2022-10-18T16:21:38.183Z,93.13
2022-10-18T16:24:05.928Z,92.11
2022-10-18T16:26:33.284Z,93.15
2022-10-18T16:29:00.777Z,95.26
2022-10-18T16:31:30.866Z,96.56
2022-10-18T16:33:58.538Z,96.81
2022-10-18T16:36:29.101Z,100.00
2022-10-18T16:38:57.661Z,100.00
2022-10-18T16:41:24.803Z,98.91
2022-10-18T16:43:51.554Z,98.99
2022-10-18T16:46:21.181Z,100.00
2022-10-18T16:48:49.923Z,100.00
2022-10-18T16:51:17.994Z,100.00
2022-10-18T16:53:44.872Z,100.00
2022-10-18T16:56:39.046Z,100.00
2022-10-18T16:59:05.774Z,100.00
2022-10-18T17:01:32.746Z,100.00
2022-10-18T17:03:59.416Z,100.00
2022-10-18T17:06:28.399Z,100.00
2022-10-18T17:08:56.224Z,100.00
2022-10-18T17:11:25.450Z,100.00
2022-10-18T17:13:52.281Z,100.00
2022-10-18T17:16:34.911Z,100.00
2022-10-18T17:19:04.721Z,100.00
2022-10-18T17:21:33.542Z,100.00
2022-10-18T17:24:04.517Z,100.00
2022-10-18T17:26:32.505Z,100.00
2022-10-18T17:29:05.504Z,100.00
2022-10-18T17:31:33.220Z,100.00
2022-10-18T17:34:01.860Z,100.00
2022-10-18T17:36:32.763Z,100.00
2022-10-18T17:38:59.552Z,100.00
2022-10-18T17:41:26.352Z,100.00
2022-10-18T17:43:53.429Z,100.00
2022-10-18T17:46:20.356Z,100.00
2022-10-18T17:48:47.482Z,100.00
2022-10-18T17:51:16.544Z,100.00
2022-10-18T17:53:43.299Z,100.00
2022-10-18T17:56:11.107Z,100.00
2022-10-18T17:58:37.848Z,100.00
2022-10-18T18:01:14.920Z,100.00
2022-10-18T18:03:42.060Z,100.00
2022-10-18T18:06:20.976Z,100.00
2022-10-18T18:08:48.592Z,100.00
2022-10-18T18:11:16.377Z,100.00
2022-10-18T18:13:43.687Z,100.00
2022-10-18T18:16:21.897Z,100.00
2022-10-18T18:18:51.213Z,100.00
2022-10-18T18:21:17.988Z,100.00
2022-10-18T18:23:45.239Z,100.00
2022-10-18T18:26:11.942Z,100.00
2022-10-18T18:28:39.029Z,100.00
2022-10-18T18:31:17.607Z,100.00
2022-10-18T18:33:45.102Z,100.00
2022-10-18T18:36:12.676Z,100.00
2022-10-18T18:38:42.738Z,100.00
2022-10-18T18:41:18.807Z,100.00
2022-10-18T18:44:00.344Z,100.00
2022-10-18T18:46:29.554Z,100.00
2022-10-18T18:48:59.351Z,100.00
2022-10-18T18:51:26.398Z,100.00
2022-10-18T18:53:53.295Z,100.00
2022-10-18T18:56:23.655Z,100.00
2022-10-18T18:58:52.561Z,100.00
2022-10-18T19:01:24.953Z,100.00
2022-10-18T19:03:53.550Z,100.00
2022-10-18T19:06:23.531Z,100.00
2022-10-18T19:08:52.693Z,100.00
2022-10-18T19:11:21.457Z,100.00
2022-10-18T19:13:49.011Z,100.00
2022-10-18T19:16:24.866Z,100.00
2022-10-18T19:19:05.480Z,100.00
2022-10-18T19:21:35.406Z,100.00
2022-10-18T19:24:03.572Z,100.00
2022-10-18T19:26:44.972Z,100.00
2022-10-18T19:29:21.448Z,100.00
2022-10-18T19:31:49.392Z,100.00
2022-10-18T19:34:17.373Z,100.00
2022-10-18T19:36:46.604Z,100.00
2022-10-18T19:39:24.678Z,100.00
2022-10-18T19:41:55.281Z,100.00
2022-10-18T19:44:23.844Z,100.00
2022-10-18T19:46:51.047Z,100.00
2022-10-18T19:49:18.509Z,100.00
2022-10-18T19:51:45.331Z,100.00
2022-10-18T19:54:13.607Z,100.00
2022-10-18T19:56:43.742Z,100.00
2022-10-18T19:59:11.952Z,100.00
2022-10-18T20:01:38.977Z,100.00
2022-10-18T20:04:07.412Z,100.00
2022-10-18T20:06:35.131Z,100.00
2022-10-18T20:09:01.835Z,100.00
2022-10-18T20:11:29.250Z,100.00
2022-10-18T20:13:56.896Z,100.00
2022-10-18T20:16:28.314Z,100.00
2022-10-18T20:19:00.160Z,100.00
2022-10-18T20:21:28.745Z,100.00
2022-10-18T20:23:55.936Z,100.00
2022-10-18T20:26:25.379Z,100.00
2022-10-18T20:28:57.150Z,100.00
2022-10-18T20:31:35.677Z,100.00
2022-10-18T20:34:05.027Z,100.00
2022-10-18T20:36:32.660Z,100.00
2022-10-18T20:38:59.596Z,100.00
2022-10-18T20:41:27.917Z,100.00
2022-10-18T20:43:59.802Z,100.00
2022-10-18T20:46:29.879Z,100.00
2022-10-18T20:48:56.621Z,100.00
2022-10-18T20:51:23.828Z,100.00
2022-10-18T20:53:51.463Z,100.00
2022-10-18T20:56:21.215Z,100.00
2022-10-18T20:58:51.032Z,100.00
2022-10-18T21:01:20.922Z,100.00
2022-10-18T21:03:49.155Z,100.00
2022-10-18T21:06:21.670Z,100.00
2022-10-18T21:08:52.966Z,100.00
2022-10-18T21:11:19.674Z,100.00
2022-10-18T21:13:59.013Z,100.00
2022-10-18T21:16:26.818Z,100.00
2022-10-18T21:18:53.723Z,100.00
2022-10-18T21:21:23.189Z,100.00
2022-10-18T21:23:51.165Z,100.00
2022-10-18T21:26:19.054Z,100.00
2022-10-18T21:28:46.011Z,100.00
2022-10-18T21:31:18.335Z,100.00
2022-10-18T21:33:46.576Z,100.00
2022-10-18T21:36:14.615Z,100.00
2022-10-18T21:38:45.669Z,100.00
2022-10-18T21:41:14.587Z,100.00
2022-10-18T21:43:43.772Z,100.00
2022-10-18T21:46:11.746Z,100.00
2022-10-18T21:48:39.439Z,100.00
2022-10-18T21:51:07.550Z,100.00
2022-10-18T21:53:34.896Z,100.00
2022-10-18T21:56:06.906Z,100.00
2022-10-18T21:58:37.115Z,100.00
2022-10-18T22:01:11.734Z,100.00
2022-10-18T22:03:38.685Z,100.00
2022-10-18T22:06:13.710Z,100.00
2022-10-18T22:08:48.082Z,100.00
2022-10-18T22:11:15.049Z,100.00
2022-10-18T22:13:42.456Z,100.00
2022-10-18T22:16:11.659Z,100.00
2022-10-18T22:18:38.357Z,100.00
2022-10-18T22:21:07.439Z,100.00
2022-10-18T22:23:36.381Z,100.00
2022-10-18T22:26:11.481Z,100.00
2022-10-18T22:28:39.671Z,100.00
2022-10-18T22:31:06.969Z,100.00
2022-10-18T22:33:33.772Z,100.00
2022-10-18T22:36:00.546Z,100.00
2022-10-18T22:38:27.240Z,100.00
2022-10-18T22:40:53.851Z,100.00
2022-10-18T22:43:20.607Z,100.00
2022-10-18T22:45:47.231Z,100.00
2022-10-18T22:48:13.864Z,100.00
2022-10-18T22:50:40.568Z,100.00
2022-10-18T22:53:07.513Z,100.00
2022-10-18T22:55:34.205Z,100.00
2022-10-18T22:58:00.831Z,100.00
2022-10-18T23:00:27.707Z,100.00
2022-10-18T23:02:54.373Z,100.00
2022-10-18T23:05:21.006Z,100.00
2022-10-18T23:07:49.329Z,100.00
2022-10-18T23:10:16.546Z,100.00
2022-10-18T23:12:43.237Z,100.00
2022-10-18T23:15:10.425Z,100.00
2022-10-18T23:17:37.558Z,100.00
2022-10-18T23:20:05.469Z,100.00
2022-10-18T23:22:34.136Z,100.00
2022-10-18T23:25:01.116Z,100.00
2022-10-18T23:27:29.277Z,100.00
2022-10-18T23:29:56.195Z,100.00
2022-10-18T23:32:22.845Z,100.00
2022-10-18T23:34:49.547Z,100.00
2022-10-18T23:37:16.254Z,100.00
2022-10-18T23:39:42.926Z,100.00
2022-10-18T23:42:09.689Z,100.00
2022-10-18T23:44:36.844Z,100.00
2022-10-18T23:47:03.570Z,100.00
2022-10-18T23:49:30.306Z,100.00
2022-10-18T23:51:56.933Z,100.00
2022-10-18T23:54:23.589Z,100.00
2022-10-18T23:56:50.235Z,100.00
2022-10-18T23:59:17.127Z,100.00
